sensor_id;sensor_type;location;lat;lon;timestamp;temperature;humidity
22145;DHT22;11238;48.730;11.566;2022-09-09T00:10:34;13.20;99.90
22145;DHT22;11238;48.730;11.566;2022-09-09T00:13:02;13.20;99.90
22145;DHT22;11238;48.730;11.566;2022-09-09T00:21:06;13.20;99.90
22145;DHT22;11238;48.730;11.566;2022-09-09T00:23:38;13.20;99.90
22145;DHT22;11238;48.730;11.566;2022-09-09T00:26:08;13.20;99.90
22145;DHT22;11238;48.730;11.566;2022-09-09T00:31:40;13.10;99.90
22145;DHT22;11238;48.730;11.566;2022-09-09T00:34:16;13.10;99.90
22145;DHT22;11238;48.730;11.566;2022-09-09T00:36:45;13.00;99.90
22145;DHT22;11238;48.730;11.566;2022-09-09T00:39:38;13.00;99.90
22145;DHT22;11238;48.730;11.566;2022-09-09T00:44:37;13.00;99.90
22145;DHT22;11238;48.730;11.566;2022-09-09T00:55:34;12.80;99.90
22145;DHT22;11238;48.730;11.566;2022-09-09T00:58:02;12.80;99.90
22145;DHT22;11238;48.730;11.566;2022-09-09T01:10:51;12.70;99.90
22145;DHT22;11238;48.730;11.566;2022-09-09T01:13:27;12.70;99.90
22145;DHT22;11238;48.730;11.566;2022-09-09T01:15:59;12.70;99.90
22145;DHT22;11238;48.730;11.566;2022-09-09T01:18:35;12.70;99.90
22145;DHT22;11238;48.730;11.566;2022-09-09T01:24:42;12.70;99.90
22145;DHT22;11238;48.730;11.566;2022-09-09T01:27:06;12.70;99.90
22145;DHT22;11238;48.730;11.566;2022-09-09T01:29:33;12.70;99.90
22145;DHT22;11238;48.730;11.566;2022-09-09T01:32:37;12.70;99.90
22145;DHT22;11238;48.730;11.566;2022-09-09T01:34:50;12.50;99.90
22145;DHT22;11238;48.730;11.566;2022-09-09T01:37:16;12.60;99.90
22145;DHT22;11238;48.730;11.566;2022-09-09T01:39:43;12.60;99.90
22145;DHT22;11238;48.730;11.566;2022-09-09T01:42:15;12.60;99.90
22145;DHT22;11238;48.730;11.566;2022-09-09T01:44:42;12.60;99.90
22145;DHT22;11238;48.730;11.566;2022-09-09T01:47:08;12.60;99.90
22145;DHT22;11238;48.730;11.566;2022-09-09T01:49:40;12.60;99.90
22145;DHT22;11238;48.730;11.566;2022-09-09T01:52:16;12.50;99.90
22145;DHT22;11238;48.730;11.566;2022-09-09T01:54:43;12.40;99.90
22145;DHT22;11238;48.730;11.566;2022-09-09T02:00:08;12.30;99.90
22145;DHT22;11238;48.730;11.566;2022-09-09T02:03:08;12.30;99.90
22145;DHT22;11238;48.730;11.566;2022-09-09T02:08:50;12.20;99.90
22145;DHT22;11238;48.730;11.566;2022-09-09T02:11:18;12.30;99.90
22145;DHT22;11238;48.730;11.566;2022-09-09T02:14:21;12.30;99.90
22145;DHT22;11238;48.730;11.566;2022-09-09T02:17:07;12.30;99.90
22145;DHT22;11238;48.730;11.566;2022-09-09T02:20:01;12.30;99.90
22145;DHT22;11238;48.730;11.566;2022-09-09T02:22:41;12.30;99.90
22145;DHT22;11238;48.730;11.566;2022-09-09T02:25:13;12.20;99.90
22145;DHT22;11238;48.730;11.566;2022-09-09T02:27:44;12.20;99.90
22145;DHT22;11238;48.730;11.566;2022-09-09T02:30:11;12.20;99.90
22145;DHT22;11238;48.730;11.566;2022-09-09T02:32:43;12.20;99.90
22145;DHT22;11238;48.730;11.566;2022-09-09T02:35:15;12.20;99.90
22145;DHT22;11238;48.730;11.566;2022-09-09T02:37:43;12.10;99.90
22145;DHT22;11238;48.730;11.566;2022-09-09T02:40:13;12.00;99.90
22145;DHT22;11238;48.730;11.566;2022-09-09T02:42:47;12.00;99.90
22145;DHT22;11238;48.730;11.566;2022-09-09T02:45:16;12.10;99.90
22145;DHT22;11238;48.730;11.566;2022-09-09T02:50:35;12.10;99.90
22145;DHT22;11238;48.730;11.566;2022-09-09T02:53:18;12.10;99.90
22145;DHT22;11238;48.730;11.566;2022-09-09T02:55:50;12.10;99.90
22145;DHT22;11238;48.730;11.566;2022-09-09T02:58:22;11.90;99.90
22145;DHT22;11238;48.730;11.566;2022-09-09T03:01:00;12.00;99.90
22145;DHT22;11238;48.730;11.566;2022-09-09T03:03:29;12.00;99.90
22145;DHT22;11238;48.730;11.566;2022-09-09T03:05:56;11.90;99.90
22145;DHT22;11238;48.730;11.566;2022-09-09T03:08:22;11.90;99.90
22145;DHT22;11238;48.730;11.566;2022-09-09T03:10:49;11.90;99.90
22145;DHT22;11238;48.730;11.566;2022-09-09T03:13:15;11.90;99.90
22145;DHT22;11238;48.730;11.566;2022-09-09T03:15:41;11.90;99.90
22145;DHT22;11238;48.730;11.566;2022-09-09T03:18:13;11.90;99.90
22145;DHT22;11238;48.730;11.566;2022-09-09T03:20:39;11.90;99.90
22145;DHT22;11238;48.730;11.566;2022-09-09T03:23:04;11.90;99.90
22145;DHT22;11238;48.730;11.566;2022-09-09T03:25:30;11.80;99.90
22145;DHT22;11238;48.730;11.566;2022-09-09T03:27:58;11.80;99.90
22145;DHT22;11238;48.730;11.566;2022-09-09T03:30:26;11.80;99.90
22145;DHT22;11238;48.730;11.566;2022-09-09T03:32:54;11.90;99.90
22145;DHT22;11238;48.730;11.566;2022-09-09T03:35:24;11.90;99.90
22145;DHT22;11238;48.730;11.566;2022-09-09T03:37:50;11.80;99.90
22145;DHT22;11238;48.730;11.566;2022-09-09T03:40:16;11.80;99.90
22145;DHT22;11238;48.730;11.566;2022-09-09T03:42:44;11.90;99.90
22145;DHT22;11238;48.730;11.566;2022-09-09T03:45:10;11.90;99.90
22145;DHT22;11238;48.730;11.566;2022-09-09T03:47:39;11.90;99.90
22145;DHT22;11238;48.730;11.566;2022-09-09T03:50:07;12.00;99.90
22145;DHT22;11238;48.730;11.566;2022-09-09T03:52:36;11.90;99.90
22145;DHT22;11238;48.730;11.566;2022-09-09T03:55:04;11.90;99.90
22145;DHT22;11238;48.730;11.566;2022-09-09T03:57:31;11.90;99.90
22145;DHT22;11238;48.730;11.566;2022-09-09T03:59:57;11.90;99.90
22145;DHT22;11238;48.730;11.566;2022-09-09T04:02:31;11.90;99.90
22145;DHT22;11238;48.730;11.566;2022-09-09T04:04:57;11.90;99.90
22145;DHT22;11238;48.730;11.566;2022-09-09T04:07:23;11.90;99.90
22145;DHT22;11238;48.730;11.566;2022-09-09T04:09:49;12.00;99.90
22145;DHT22;11238;48.730;11.566;2022-09-09T04:12:15;12.00;99.90
22145;DHT22;11238;48.730;11.566;2022-09-09T04:14:42;11.90;99.90
22145;DHT22;11238;48.730;11.566;2022-09-09T04:17:09;11.90;99.90
22145;DHT22;11238;48.730;11.566;2022-09-09T04:19:36;12.00;99.90
22145;DHT22;11238;48.730;11.566;2022-09-09T04:22:03;12.00;99.90
22145;DHT22;11238;48.730;11.566;2022-09-09T04:24:28;12.10;99.90
22145;DHT22;11238;48.730;11.566;2022-09-09T04:26:55;12.10;99.90
22145;DHT22;11238;48.730;11.566;2022-09-09T04:29:21;12.20;99.90
22145;DHT22;11238;48.730;11.566;2022-09-09T04:31:47;12.10;99.90
22145;DHT22;11238;48.730;11.566;2022-09-09T04:34:13;12.20;99.90
22145;DHT22;11238;48.730;11.566;2022-09-09T04:36:39;12.20;99.90
22145;DHT22;11238;48.730;11.566;2022-09-09T04:39:06;12.20;99.90
22145;DHT22;11238;48.730;11.566;2022-09-09T04:41:32;12.20;99.90
22145;DHT22;11238;48.730;11.566;2022-09-09T04:43:58;12.30;99.90
22145;DHT22;11238;48.730;11.566;2022-09-09T04:46:26;12.30;99.90
22145;DHT22;11238;48.730;11.566;2022-09-09T04:48:52;12.20;99.90
22145;DHT22;11238;48.730;11.566;2022-09-09T04:51:19;12.20;99.90
22145;DHT22;11238;48.730;11.566;2022-09-09T04:53:47;12.20;99.90
22145;DHT22;11238;48.730;11.566;2022-09-09T04:56:16;12.20;99.90
22145;DHT22;11238;48.730;11.566;2022-09-09T04:58:48;12.20;99.90
22145;DHT22;11238;48.730;11.566;2022-09-09T05:01:19;12.20;99.90
22145;DHT22;11238;48.730;11.566;2022-09-09T05:03:46;12.20;99.90
22145;DHT22;11238;48.730;11.566;2022-09-09T05:06:20;12.10;99.90
22145;DHT22;11238;48.730;11.566;2022-09-09T05:08:48;12.10;99.90
22145;DHT22;11238;48.730;11.566;2022-09-09T05:11:28;12.10;99.90
22145;DHT22;11238;48.730;11.566;2022-09-09T05:14:00;12.20;99.90
22145;DHT22;11238;48.730;11.566;2022-09-09T05:16:28;12.20;99.90
22145;DHT22;11238;48.730;11.566;2022-09-09T05:18:55;12.20;99.90
22145;DHT22;11238;48.730;11.566;2022-09-09T05:21:22;12.20;99.90
22145;DHT22;11238;48.730;11.566;2022-09-09T05:23:49;12.30;99.90
22145;DHT22;11238;48.730;11.566;2022-09-09T05:26:19;12.30;99.90
22145;DHT22;11238;48.730;11.566;2022-09-09T05:28:48;12.40;99.90
22145;DHT22;11238;48.730;11.566;2022-09-09T05:31:15;12.40;99.90
22145;DHT22;11238;48.730;11.566;2022-09-09T05:33:45;12.50;99.90
22145;DHT22;11238;48.730;11.566;2022-09-09T05:36:18;12.50;99.90
22145;DHT22;11238;48.730;11.566;2022-09-09T05:38:46;12.50;99.90
22145;DHT22;11238;48.730;11.566;2022-09-09T05:41:13;12.50;99.90
22145;DHT22;11238;48.730;11.566;2022-09-09T05:43:43;12.60;99.90
22145;DHT22;11238;48.730;11.566;2022-09-09T05:46:22;12.70;99.90
22145;DHT22;11238;48.730;11.566;2022-09-09T05:48:51;12.80;99.90
22145;DHT22;11238;48.730;11.566;2022-09-09T05:51:20;12.80;99.90
22145;DHT22;11238;48.730;11.566;2022-09-09T05:53:48;12.90;99.90
22145;DHT22;11238;48.730;11.566;2022-09-09T05:56:16;12.90;99.90
22145;DHT22;11238;48.730;11.566;2022-09-09T05:58:43;13.00;99.90
22145;DHT22;11238;48.730;11.566;2022-09-09T06:01:14;13.00;99.90
22145;DHT22;11238;48.730;11.566;2022-09-09T06:03:43;13.10;99.90
22145;DHT22;11238;48.730;11.566;2022-09-09T06:06:23;13.20;99.90
22145;DHT22;11238;48.730;11.566;2022-09-09T06:08:52;13.30;99.90
22145;DHT22;11238;48.730;11.566;2022-09-09T06:11:24;13.30;99.90
22145;DHT22;11238;48.730;11.566;2022-09-09T06:13:50;13.40;99.90
22145;DHT22;11238;48.730;11.566;2022-09-09T06:16:21;13.40;99.90
22145;DHT22;11238;48.730;11.566;2022-09-09T06:18:50;13.50;99.90
22145;DHT22;11238;48.730;11.566;2022-09-09T06:21:22;13.50;99.90
22145;DHT22;11238;48.730;11.566;2022-09-09T06:23:48;13.60;99.90
22145;DHT22;11238;48.730;11.566;2022-09-09T06:26:17;13.60;99.90
22145;DHT22;11238;48.730;11.566;2022-09-09T06:28:45;13.60;99.90
22145;DHT22;11238;48.730;11.566;2022-09-09T06:31:13;13.70;99.90
22145;DHT22;11238;48.730;11.566;2022-09-09T06:33:42;13.70;99.90
22145;DHT22;11238;48.730;11.566;2022-09-09T06:36:14;13.70;99.90
22145;DHT22;11238;48.730;11.566;2022-09-09T06:38:41;13.80;99.90
22145;DHT22;11238;48.730;11.566;2022-09-09T06:41:10;13.80;99.90
22145;DHT22;11238;48.730;11.566;2022-09-09T06:43:36;13.80;99.90
22145;DHT22;11238;48.730;11.566;2022-09-09T06:46:09;13.90;99.90
22145;DHT22;11238;48.730;11.566;2022-09-09T06:48:39;13.90;99.90
22145;DHT22;11238;48.730;11.566;2022-09-09T06:53:41;13.80;99.90
22145;DHT22;11238;48.730;11.566;2022-09-09T06:56:31;13.80;99.90
22145;DHT22;11238;48.730;11.566;2022-09-09T06:59:01;13.90;99.90
22145;DHT22;11238;48.730;11.566;2022-09-09T07:01:33;14.00;99.90
22145;DHT22;11238;48.730;11.566;2022-09-09T07:04:03;13.90;99.90
22145;DHT22;11238;48.730;11.566;2022-09-09T07:06:35;13.90;99.90
22145;DHT22;11238;48.730;11.566;2022-09-09T07:09:05;13.90;99.90
22145;DHT22;11238;48.730;11.566;2022-09-09T07:11:37;14.00;99.90
22145;DHT22;11238;48.730;11.566;2022-09-09T07:14:04;14.00;99.90
22145;DHT22;11238;48.730;11.566;2022-09-09T07:16:30;14.00;99.90
22145;DHT22;11238;48.730;11.566;2022-09-09T07:18:59;14.00;99.90
22145;DHT22;11238;48.730;11.566;2022-09-09T07:21:28;14.10;99.90
22145;DHT22;11238;48.730;11.566;2022-09-09T07:23:55;14.10;99.90
22145;DHT22;11238;48.730;11.566;2022-09-09T07:26:25;14.10;99.90
22145;DHT22;11238;48.730;11.566;2022-09-09T07:28:53;14.10;99.90
22145;DHT22;11238;48.730;11.566;2022-09-09T07:31:24;14.10;99.90
22145;DHT22;11238;48.730;11.566;2022-09-09T07:33:51;14.10;99.90
22145;DHT22;11238;48.730;11.566;2022-09-09T07:36:28;14.20;99.90
22145;DHT22;11238;48.730;11.566;2022-09-09T07:38:57;14.20;99.90
22145;DHT22;11238;48.730;11.566;2022-09-09T07:41:26;14.20;99.90
22145;DHT22;11238;48.730;11.566;2022-09-09T07:43:53;14.30;99.90
22145;DHT22;11238;48.730;11.566;2022-09-09T07:46:24;14.30;99.90
22145;DHT22;11238;48.730;11.566;2022-09-09T07:48:53;14.30;99.90
22145;DHT22;11238;48.730;11.566;2022-09-09T07:51:28;14.40;99.90
22145;DHT22;11238;48.730;11.566;2022-09-09T07:54:00;14.40;99.90
22145;DHT22;11238;48.730;11.566;2022-09-09T07:56:29;14.40;99.90
22145;DHT22;11238;48.730;11.566;2022-09-09T07:58:56;14.40;99.90
22145;DHT22;11238;48.730;11.566;2022-09-09T08:01:31;14.40;99.90
22145;DHT22;11238;48.730;11.566;2022-09-09T08:04:03;14.30;99.90
22145;DHT22;11238;48.730;11.566;2022-09-09T08:06:37;14.40;99.90
22145;DHT22;11238;48.730;11.566;2022-09-09T08:09:04;14.40;99.90
22145;DHT22;11238;48.730;11.566;2022-09-09T08:11:32;14.30;99.90
22145;DHT22;11238;48.730;11.566;2022-09-09T08:14:00;14.40;99.90
22145;DHT22;11238;48.730;11.566;2022-09-09T08:16:28;14.50;99.90
22145;DHT22;11238;48.730;11.566;2022-09-09T08:18:56;14.60;99.90
22145;DHT22;11238;48.730;11.566;2022-09-09T08:21:28;14.70;99.90
22145;DHT22;11238;48.730;11.566;2022-09-09T08:23:57;14.70;99.90
22145;DHT22;11238;48.730;11.566;2022-09-09T08:26:29;14.80;99.90
22145;DHT22;11238;48.730;11.566;2022-09-09T08:28:57;14.80;99.90
22145;DHT22;11238;48.730;11.566;2022-09-09T08:31:26;14.90;99.90
22145;DHT22;11238;48.730;11.566;2022-09-09T08:33:54;15.10;99.90
22145;DHT22;11238;48.730;11.566;2022-09-09T08:36:24;15.20;99.90
22145;DHT22;11238;48.730;11.566;2022-09-09T08:38:55;15.30;99.90
22145;DHT22;11238;48.730;11.566;2022-09-09T08:47:25;15.50;99.90
22145;DHT22;11238;48.730;11.566;2022-09-09T08:55:41;15.80;99.90
22145;DHT22;11238;48.730;11.566;2022-09-09T08:58:17;16.10;99.90
22145;DHT22;11238;48.730;11.566;2022-09-09T09:09:05;16.50;99.90
22145;DHT22;11238;48.730;11.566;2022-09-09T09:11:36;16.70;99.90
22145;DHT22;11238;48.730;11.566;2022-09-09T09:14:16;16.60;99.90
22145;DHT22;11238;48.730;11.566;2022-09-09T09:17:00;16.90;99.90
22145;DHT22;11238;48.730;11.566;2022-09-09T09:19:28;16.90;99.90
22145;DHT22;11238;48.730;11.566;2022-09-09T09:27:34;17.30;99.90
22145;DHT22;11238;48.730;11.566;2022-09-09T09:32:39;17.40;99.90
22145;DHT22;11238;48.730;11.566;2022-09-09T09:35:12;17.40;99.90
22145;DHT22;11238;48.730;11.566;2022-09-09T09:37:40;17.50;99.90
22145;DHT22;11238;48.730;11.566;2022-09-09T09:40:11;17.60;99.90
22145;DHT22;11238;48.730;11.566;2022-09-09T09:42:47;17.60;99.90
22145;DHT22;11238;48.730;11.566;2022-09-09T09:45:23;17.70;99.90
22145;DHT22;11238;48.730;11.566;2022-09-09T09:48:04;17.70;99.90
22145;DHT22;11238;48.730;11.566;2022-09-09T09:50:33;17.70;99.90
22145;DHT22;11238;48.730;11.566;2022-09-09T09:53:02;17.70;99.90
22145;DHT22;11238;48.730;11.566;2022-09-09T09:55:32;17.70;99.90
22145;DHT22;11238;48.730;11.566;2022-09-09T09:58:05;17.70;99.90
22145;DHT22;11238;48.730;11.566;2022-09-09T10:00:33;17.90;99.90
22145;DHT22;11238;48.730;11.566;2022-09-09T10:05:53;18.00;99.90
22145;DHT22;11238;48.730;11.566;2022-09-09T10:08:20;18.20;99.90
22145;DHT22;11238;48.730;11.566;2022-09-09T10:11:02;18.40;99.90
22145;DHT22;11238;48.730;11.566;2022-09-09T10:18:57;19.20;99.90
22145;DHT22;11238;48.730;11.566;2022-09-09T10:25:19;19.40;99.90
22145;DHT22;11238;48.730;11.566;2022-09-09T10:30:56;20.00;99.90
22145;DHT22;11238;48.730;11.566;2022-09-09T10:36:40;20.40;99.90
22145;DHT22;11238;48.730;11.566;2022-09-09T10:39:33;20.30;99.90
22145;DHT22;11238;48.730;11.566;2022-09-09T10:42:09;20.00;99.90
22145;DHT22;11238;48.730;11.566;2022-09-09T10:48:26;20.10;99.90
22145;DHT22;11238;48.730;11.566;2022-09-09T10:55:42;20.20;99.90
22145;DHT22;11238;48.730;11.566;2022-09-09T10:58:27;20.40;99.90
22145;DHT22;11238;48.730;11.566;2022-09-09T11:00:59;20.30;99.90
22145;DHT22;11238;48.730;11.566;2022-09-09T11:03:29;20.50;99.90
22145;DHT22;11238;48.730;11.566;2022-09-09T11:06:04;20.40;99.90
22145;DHT22;11238;48.730;11.566;2022-09-09T11:08:36;20.30;99.90
22145;DHT22;11238;48.730;11.566;2022-09-09T11:11:29;20.30;99.90
22145;DHT22;11238;48.730;11.566;2022-09-09T11:14:12;20.30;99.90
22145;DHT22;11238;48.730;11.566;2022-09-09T11:16:46;20.20;99.90
22145;DHT22;11238;48.730;11.566;2022-09-09T11:21:46;20.10;99.90
22145;DHT22;11238;48.730;11.566;2022-09-09T11:24:33;20.30;99.90
22145;DHT22;11238;48.730;11.566;2022-09-09T11:27:12;20.20;99.90
22145;DHT22;11238;48.730;11.566;2022-09-09T11:40:37;20.30;99.90
22145;DHT22;11238;48.730;11.566;2022-09-09T11:43:12;20.40;99.90
22145;DHT22;11238;48.730;11.566;2022-09-09T11:45:41;20.20;99.90
22145;DHT22;11238;48.730;11.566;2022-09-09T11:48:36;20.20;99.90
22145;DHT22;11238;48.730;11.566;2022-09-09T11:53:31;20.20;99.90
22145;DHT22;11238;48.730;11.566;2022-09-09T11:56:22;20.10;99.90
22145;DHT22;11238;48.730;11.566;2022-09-09T11:59:00;20.00;99.90
22145;DHT22;11238;48.730;11.566;2022-09-09T12:06:52;20.20;99.90
22145;DHT22;11238;48.730;11.566;2022-09-09T12:17:18;20.50;99.90
22145;DHT22;11238;48.730;11.566;2022-09-09T12:19:45;20.60;99.90
22145;DHT22;11238;48.730;11.566;2022-09-09T12:22:37;20.50;99.90
22145;DHT22;11238;48.730;11.566;2022-09-09T12:25:16;20.70;99.90
22145;DHT22;11238;48.730;11.566;2022-09-09T12:27:59;20.80;99.90
22145;DHT22;11238;48.730;11.566;2022-09-09T12:33:21;20.60;99.90
22145;DHT22;11238;48.730;11.566;2022-09-09T12:35:55;21.10;99.90
22145;DHT22;11238;48.730;11.566;2022-09-09T12:38:43;21.50;99.90
22145;DHT22;11238;48.730;11.566;2022-09-09T12:41:21;21.10;99.90
22145;DHT22;11238;48.730;11.566;2022-09-09T12:43:47;21.10;99.90
22145;DHT22;11238;48.730;11.566;2022-09-09T12:46:21;21.30;99.90
22145;DHT22;11238;48.730;11.566;2022-09-09T12:48:48;21.20;99.90
22145;DHT22;11238;48.730;11.566;2022-09-09T12:51:26;21.10;99.90
22145;DHT22;11238;48.730;11.566;2022-09-09T12:53:52;20.90;99.90
22145;DHT22;11238;48.730;11.566;2022-09-09T12:56:20;21.00;99.90
22145;DHT22;11238;48.730;11.566;2022-09-09T12:58:50;21.10;99.90
22145;DHT22;11238;48.730;11.566;2022-09-09T13:01:25;21.00;99.90
22145;DHT22;11238;48.730;11.566;2022-09-09T13:03:52;21.00;99.90
22145;DHT22;11238;48.730;11.566;2022-09-09T13:06:23;21.00;99.90
22145;DHT22;11238;48.730;11.566;2022-09-09T13:08:54;21.00;99.90
22145;DHT22;11238;48.730;11.566;2022-09-09T13:11:29;21.10;99.90
22145;DHT22;11238;48.730;11.566;2022-09-09T13:13:57;21.20;99.90
22145;DHT22;11238;48.730;11.566;2022-09-09T13:16:29;21.40;99.90
22145;DHT22;11238;48.730;11.566;2022-09-09T13:19:06;21.50;99.90
22145;DHT22;11238;48.730;11.566;2022-09-09T13:21:35;21.80;99.90
22145;DHT22;11238;48.730;11.566;2022-09-09T13:24:01;22.20;99.90
22145;DHT22;11238;48.730;11.566;2022-09-09T13:26:29;22.30;99.90
22145;DHT22;11238;48.730;11.566;2022-09-09T13:29:09;22.00;99.80
22145;DHT22;11238;48.730;11.566;2022-09-09T13:31:40;21.70;99.90
22145;DHT22;11238;48.730;11.566;2022-09-09T13:34:13;21.80;99.90
22145;DHT22;11238;48.730;11.566;2022-09-09T13:36:40;22.10;99.90
22145;DHT22;11238;48.730;11.566;2022-09-09T13:39:15;22.00;99.50
22145;DHT22;11238;48.730;11.566;2022-09-09T13:41:44;22.00;97.80
22145;DHT22;11238;48.730;11.566;2022-09-09T13:44:40;21.50;98.50
22145;DHT22;11238;48.730;11.566;2022-09-09T13:47:19;21.50;98.60
22145;DHT22;11238;48.730;11.566;2022-09-09T13:49:46;21.50;99.00
22145;DHT22;11238;48.730;11.566;2022-09-09T13:52:14;21.50;99.00
22145;DHT22;11238;48.730;11.566;2022-09-09T13:54:42;21.80;98.40
22145;DHT22;11238;48.730;11.566;2022-09-09T13:57:18;22.00;99.70
22145;DHT22;11238;48.730;11.566;2022-09-09T13:59:46;22.30;99.60
22145;DHT22;11238;48.730;11.566;2022-09-09T14:02:13;22.40;97.80
22145;DHT22;11238;48.730;11.566;2022-09-09T14:04:39;22.30;97.40
22145;DHT22;11238;48.730;11.566;2022-09-09T14:07:12;22.10;97.40
22145;DHT22;11238;48.730;11.566;2022-09-09T14:09:40;22.00;97.90
22145;DHT22;11238;48.730;11.566;2022-09-09T14:12:12;22.20;99.40
22145;DHT22;11238;48.730;11.566;2022-09-09T14:14:39;22.40;98.40
22145;DHT22;11238;48.730;11.566;2022-09-09T14:17:05;22.80;99.10
22145;DHT22;11238;48.730;11.566;2022-09-09T14:19:32;22.70;96.90
22145;DHT22;11238;48.730;11.566;2022-09-09T14:21:58;22.70;93.90
22145;DHT22;11238;48.730;11.566;2022-09-09T14:24:24;22.90;95.90
22145;DHT22;11238;48.730;11.566;2022-09-09T14:26:51;23.00;94.10
22145;DHT22;11238;48.730;11.566;2022-09-09T14:29:17;23.10;94.90
22145;DHT22;11238;48.730;11.566;2022-09-09T14:31:42;23.10;92.80
22145;DHT22;11238;48.730;11.566;2022-09-09T14:34:08;22.80;93.50
22145;DHT22;11238;48.730;11.566;2022-09-09T14:36:35;22.60;92.50
22145;DHT22;11238;48.730;11.566;2022-09-09T14:39:01;22.40;92.50
22145;DHT22;11238;48.730;11.566;2022-09-09T14:41:27;22.30;94.40
22145;DHT22;11238;48.730;11.566;2022-09-09T14:43:55;22.00;94.00
22145;DHT22;11238;48.730;11.566;2022-09-09T14:46:21;21.70;94.60
22145;DHT22;11238;48.730;11.566;2022-09-09T14:48:47;21.50;95.30
22145;DHT22;11238;48.730;11.566;2022-09-09T14:51:19;21.40;96.60
22145;DHT22;11238;48.730;11.566;2022-09-09T14:53:46;21.30;96.30
22145;DHT22;11238;48.730;11.566;2022-09-09T14:56:18;21.30;96.30
22145;DHT22;11238;48.730;11.566;2022-09-09T14:58:44;21.40;96.60
22145;DHT22;11238;48.730;11.566;2022-09-09T15:01:15;21.40;97.30
22145;DHT22;11238;48.730;11.566;2022-09-09T15:03:44;21.30;96.60
22145;DHT22;11238;48.730;11.566;2022-09-09T15:06:14;21.20;96.80
22145;DHT22;11238;48.730;11.566;2022-09-09T15:08:43;21.10;96.70
22145;DHT22;11238;48.730;11.566;2022-09-09T15:11:10;21.10;97.50
22145;DHT22;11238;48.730;11.566;2022-09-09T15:13:37;21.00;95.90
22145;DHT22;11238;48.730;11.566;2022-09-09T15:16:09;21.00;95.90
22145;DHT22;11238;48.730;11.566;2022-09-09T15:18:36;21.00;97.00
22145;DHT22;11238;48.730;11.566;2022-09-09T15:21:03;21.00;97.20
22145;DHT22;11238;48.730;11.566;2022-09-09T15:23:36;20.90;97.40
22145;DHT22;11238;48.730;11.566;2022-09-09T15:26:02;20.80;96.30
22145;DHT22;11238;48.730;11.566;2022-09-09T15:28:29;20.60;96.50
22145;DHT22;11238;48.730;11.566;2022-09-09T15:30:56;20.50;97.40
22145;DHT22;11238;48.730;11.566;2022-09-09T15:33:22;20.40;97.60
22145;DHT22;11238;48.730;11.566;2022-09-09T15:35:49;20.30;99.30
22145;DHT22;11238;48.730;11.566;2022-09-09T15:38:16;20.30;99.90
22145;DHT22;11238;48.730;11.566;2022-09-09T15:40:43;20.40;99.40
22145;DHT22;11238;48.730;11.566;2022-09-09T15:43:09;20.40;99.90
22145;DHT22;11238;48.730;11.566;2022-09-09T15:45:36;20.40;99.90
22145;DHT22;11238;48.730;11.566;2022-09-09T15:48:03;20.40;99.40
22145;DHT22;11238;48.730;11.566;2022-09-09T15:50:29;20.30;99.90
22145;DHT22;11238;48.730;11.566;2022-09-09T15:52:59;20.20;98.40
22145;DHT22;11238;48.730;11.566;2022-09-09T15:55:25;20.10;98.80
22145;DHT22;11238;48.730;11.566;2022-09-09T15:57:51;20.10;99.10
22145;DHT22;11238;48.730;11.566;2022-09-09T16:00:20;20.20;99.90
22145;DHT22;11238;48.730;11.566;2022-09-09T16:02:48;20.20;99.70
22145;DHT22;11238;48.730;11.566;2022-09-09T16:05:13;20.10;98.70
22145;DHT22;11238;48.730;11.566;2022-09-09T16:07:39;20.00;98.20
22145;DHT22;11238;48.730;11.566;2022-09-09T16:10:08;20.10;97.60
22145;DHT22;11238;48.730;11.566;2022-09-09T16:12:34;20.20;98.40
22145;DHT22;11238;48.730;11.566;2022-09-09T16:15:00;20.20;97.60
22145;DHT22;11238;48.730;11.566;2022-09-09T16:17:25;20.20;96.30
22145;DHT22;11238;48.730;11.566;2022-09-09T16:19:53;20.10;96.50
22145;DHT22;11238;48.730;11.566;2022-09-09T16:22:19;20.10;96.00
22145;DHT22;11238;48.730;11.566;2022-09-09T16:24:45;20.00;94.40
22145;DHT22;11238;48.730;11.566;2022-09-09T16:27:11;19.80;95.20
22145;DHT22;11238;48.730;11.566;2022-09-09T16:29:37;19.90;94.60
22145;DHT22;11238;48.730;11.566;2022-09-09T16:32:03;19.90;95.80
22145;DHT22;11238;48.730;11.566;2022-09-09T16:34:29;19.80;95.50
22145;DHT22;11238;48.730;11.566;2022-09-09T16:36:55;19.60;94.60
22145;DHT22;11238;48.730;11.566;2022-09-09T16:39:21;19.40;94.10
22145;DHT22;11238;48.730;11.566;2022-09-09T16:41:48;19.50;94.80
22145;DHT22;11238;48.730;11.566;2022-09-09T16:44:16;19.30;95.60
22145;DHT22;11238;48.730;11.566;2022-09-09T16:46:47;19.20;95.60
22145;DHT22;11238;48.730;11.566;2022-09-09T16:49:14;19.10;95.00
22145;DHT22;11238;48.730;11.566;2022-09-09T16:51:49;19.10;96.30
22145;DHT22;11238;48.730;11.566;2022-09-09T16:54:18;19.00;96.20
22145;DHT22;11238;48.730;11.566;2022-09-09T16:56:47;18.90;95.90
22145;DHT22;11238;48.730;11.566;2022-09-09T16:59:17;18.90;94.70
22145;DHT22;11238;48.730;11.566;2022-09-09T17:01:45;18.70;93.90
22145;DHT22;11238;48.730;11.566;2022-09-09T17:04:13;18.60;94.50
22145;DHT22;11238;48.730;11.566;2022-09-09T17:06:42;18.50;94.70
22145;DHT22;11238;48.730;11.566;2022-09-09T17:09:11;18.40;96.10
22145;DHT22;11238;48.730;11.566;2022-09-09T17:11:38;18.40;95.30
22145;DHT22;11238;48.730;11.566;2022-09-09T17:14:05;18.30;94.80
22145;DHT22;11238;48.730;11.566;2022-09-09T17:16:33;18.30;95.80
22145;DHT22;11238;48.730;11.566;2022-09-09T17:19:03;18.20;96.20
22145;DHT22;11238;48.730;11.566;2022-09-09T17:21:30;18.30;97.50
22145;DHT22;11238;48.730;11.566;2022-09-09T17:23:57;18.40;99.90
22145;DHT22;11238;48.730;11.566;2022-09-09T17:26:27;18.40;98.30
22145;DHT22;11238;48.730;11.566;2022-09-09T17:28:54;18.40;98.90
22145;DHT22;11238;48.730;11.566;2022-09-09T17:31:21;18.40;99.60
22145;DHT22;11238;48.730;11.566;2022-09-09T17:33:49;18.40;99.90
22145;DHT22;11238;48.730;11.566;2022-09-09T17:36:29;18.10;99.90
22145;DHT22;11238;48.730;11.566;2022-09-09T17:38:56;17.70;99.90
22145;DHT22;11238;48.730;11.566;2022-09-09T17:41:34;17.70;99.90
22145;DHT22;11238;48.730;11.566;2022-09-09T17:44:00;17.40;99.90
22145;DHT22;11238;48.730;11.566;2022-09-09T17:46:31;17.40;99.90
22145;DHT22;11238;48.730;11.566;2022-09-09T17:49:02;17.30;99.90
22145;DHT22;11238;48.730;11.566;2022-09-09T17:51:30;17.30;99.90
22145;DHT22;11238;48.730;11.566;2022-09-09T17:53:58;17.00;99.90
22145;DHT22;11238;48.730;11.566;2022-09-09T17:56:26;17.00;99.90